This is the latest recevied weather packets stored in our database for station/object HS6PNA-2. If no packets are shown the sender has not sent any weather packets the latest 10 day(s).
| Time | Temp. | Humidity | Pressure | Rain* | Wind** | Luminosity | Snow |
|---|---|---|---|---|---|---|---|
| 1777642460 | 30.56° C | 41% | 1003 hPa | - | - | 0 W/m² | - |
| 1777641536 | 29.44° C | 43% | 1003 hPa | - | - | 0 W/m² | - |
| 1777640612 | 30° C | 43% | 1003 hPa | - | - | 0 W/m² | - |
| 1777639687 | 30° C | 43% | 1002 hPa | - | - | 0 W/m² | - |
| 1777638763 | 30° C | 44% | 1002 hPa | - | - | 0 W/m² | - |
| 1777637838 | 30° C | 43% | 1002 hPa | - | - | 0 W/m² | - |
| 1777636914 | 30° C | 40% | 1002 hPa | - | - | 0 W/m² | - |
| 1777635989 | 29.44° C | 40% | 1002 hPa | - | - | 0 W/m² | - |
| 1777635064 | 30° C | 38% | 1002 hPa | - | - | 0 W/m² | - |
| 1777634140 | 30° C | 38% | 1002 hPa | - | - | 0 W/m² | - |
| 1777633216 | 30° C | 35% | 1002 hPa | - | - | 0 W/m² | - |
| 1777632291 | 30.56° C | 33% | 1002 hPa | - | - | 0 W/m² | - |
| 1777631367 | 30° C | 34% | 1002 hPa | - | - | 0 W/m² | - |
| 1777630442 | 30° C | 35% | 1001 hPa | - | - | 0 W/m² | - |
| 1777629518 | 29.44° C | 38% | 1001 hPa | - | - | 0 W/m² | - |
| 1777628593 | 29.44° C | 37% | 1001 hPa | - | - | 0 W/m² | - |
| 1777627669 | 31.11° C | 36% | 1000 hPa | - | - | 0 W/m² | - |
| 1777626744 | 31.11° C | 35% | 1000 hPa | - | - | 0 W/m² | - |
| 1777625820 | 31.67° C | 35% | 1001 hPa | - | - | 0 W/m² | - |
| 1777624895 | 31.11° C | 36% | 1001 hPa | - | - | 0 W/m² | - |
| 1777623971 | 31.67° C | 35% | 1002 hPa | - | - | 0 W/m² | - |
| 1777623046 | 31.11° C | 36% | 1002 hPa | - | - | 0 W/m² | - |
| 1777622122 | 31.11° C | 36% | 1002 hPa | - | - | 0 W/m² | - |
| 1777621198 | 31.11° C | 37% | 1002 hPa | - | - | 0 W/m² | - |
| 1777620273 | 31.67° C | 36% | 1002 hPa | - | - | 0 W/m² | - |
* Rain since midnight (hover to see other rain measurements)
** Current wind speed in m/s (hover to see current wind gust speed)